Time;durP1;ratioP1;P1;durP2;ratioP2;P2;SDS_P1;SDS_P2;PMS_P1;PMS_P2;Temp;Humidity;BMP_temperature;BMP_pressure;BME280_temperature;BME280_humidity;BME280_pressure;Samples;Min_cycle;Max_cycle;Signal;HPM_P1;HPM_P2
2021/04/16 00:00:15;;;;;;;4.45;2.40;;;;;;;3.88;57.72;101484.81;5011054;28;20038;-68
2021/04/16 00:02:40;;;;;;;3.47;1.88;;;;;;;3.85;57.51;101492.00;5011499;28;20266;-68
2021/04/16 00:05:06;;;;;;;3.47;1.70;;;;;;;3.86;57.99;101486.66;5010658;28;20518;-67
2021/04/16 00:07:31;;;;;;;3.30;2.17;;;;;;;3.86;57.29;101483.22;5011256;28;20037;-67
2021/04/16 00:09:58;;;;;;;3.50;1.90;;;;;;;3.83;57.17;101474.59;5010714;28;20034;-68
2021/04/16 00:12:24;;;;;;;3.95;1.90;;;;;;;3.76;57.98;101472.41;5010548;28;20107;-67
2021/04/16 00:14:49;;;;;;;2.33;1.80;;;;;;;3.73;58.33;101476.06;5010909;28;20507;-68
2021/04/16 00:17:14;;;;;;;3.08;2.00;;;;;;;3.79;58.27;101473.09;5010578;28;20034;-68
2021/04/16 00:19:39;;;;;;;3.22;2.03;;;;;;;3.70;58.18;101484.06;5011135;28;20046;-68
2021/04/16 00:22:05;;;;;;;3.10;2.00;;;;;;;3.73;57.97;101464.75;5010303;28;20026;-68
2021/04/16 00:24:30;;;;;;;3.35;2.10;;;;;;;3.68;58.61;101467.63;5010806;28;20045;-67
2021/04/16 00:26:55;;;;;;;3.03;2.10;;;;;;;3.62;58.56;101470.56;5010280;28;20042;-67
2021/04/16 00:29:21;;;;;;;3.47;2.08;;;;;;;3.67;58.61;101465.06;5010671;28;20034;-67
2021/04/16 00:31:53;;;;;;;3.80;1.90;;;;;;;3.71;58.02;101463.97;5010598;28;20034;-67
2021/04/16 00:34:20;;;;;;;2.70;1.77;;;;;;;3.73;58.42;101464.75;5009279;28;20580;-67
2021/04/16 00:36:45;;;;;;;3.22;2.20;;;;;;;3.79;57.85;101464.38;4992966;28;20034;-67
2021/04/16 00:39:10;;;;;;;5.22;2.47;;;;;;;3.80;57.79;101464.31;5010525;28;20042;-68
2021/04/16 00:41:36;;;;;;;2.70;1.90;;;;;;;3.72;58.10;101449.97;4992776;28;20030;-67
2021/04/16 00:44:01;;;;;;;2.20;1.60;;;;;;;3.75;58.16;101452.44;5010006;28;20125;-68
2021/04/16 00:46:37;;;;;;;4.40;2.70;;;;;;;3.82;58.10;101456.41;5010008;28;20046;-68
2021/04/16 00:49:05;;;;;;;3.08;1.88;;;;;;;3.75;58.31;101450.66;5010618;28;20088;-68
2021/04/16 00:51:37;;;;;;;2.17;1.45;;;;;;;3.66;59.88;101450.31;5002401;28;20037;-67
2021/04/16 00:54:05;;;;;;;2.75;1.90;;;;;;;3.69;58.56;101444.91;5009834;28;20113;-68
2021/04/16 00:56:30;;;;;;;3.33;1.90;;;;;;;3.59;59.07;101450.66;5009053;28;20471;-68
2021/04/16 00:58:56;;;;;;;2.42;1.50;;;;;;;3.58;58.75;101443.75;5009932;28;20080;-67
2021/04/16 01:01:22;;;;;;;3.03;1.73;;;;;;;3.59;58.87;101442.81;5010183;28;20442;-67
2021/04/16 01:03:47;;;;;;;3.95;2.17;;;;;;;3.54;59.83;101441.38;5010043;28;20030;-68
2021/04/16 01:06:13;;;;;;;2.30;1.65;;;;;;;3.54;59.03;101436.97;5009415;28;20045;-68
2021/04/16 01:08:39;;;;;;;3.47;2.00;;;;;;;3.56;58.74;101436.91;5009984;28;20041;-68
2021/04/16 01:11:06;;;;;;;3.10;1.52;;;;;;;3.48;60.95;101442.56;5009672;28;20128;-68
2021/04/16 01:13:34;;;;;;;5.95;2.42;;;;;;;3.51;59.66;101437.16;5009620;28;20033;-67
2021/04/16 01:16:02;;;;;;;2.22;1.50;;;;;;;3.46;62.08;101440.97;5009663;28;20447;-66
2021/04/16 01:18:33;;;;;;;2.65;1.70;;;;;;;3.43;61.30;101441.09;5010976;28;20438;-67
2021/04/16 01:21:04;;;;;;;3.05;1.70;;;;;;;3.39;63.04;101438.66;5010741;28;20590;-67
2021/04/16 01:23:49;;;;;;;;;;;;;;;3.39;63.02;101438.66;5011038;28;20041;-67
2021/04/16 01:26:25;;;;;;;3.38;1.80;;;;;;;3.34;62.19;101432.84;5009490;28;20012;-67
2021/04/16 01:28:51;;;;;;;2.67;1.58;;;;;;;3.36;62.39;101441.47;5009931;28;20124;-67
2021/04/16 01:31:20;;;;;;;3.08;2.30;;;;;;;3.40;60.97;101445.56;5009819;28;20148;-68
2021/04/16 01:33:49;;;;;;;4.05;2.05;;;;;;;3.37;61.84;101443.13;5009335;28;20120;-68
2021/04/16 01:36:17;;;;;;;3.15;1.90;;;;;;;3.44;60.99;101434.97;5009895;28;20034;-68
2021/04/16 01:38:44;;;;;;;5.32;2.45;;;;;;;3.54;60.19;101431.75;5009231;28;20107;-68
2021/04/16 01:41:12;;;;;;;3.83;2.05;;;;;;;3.63;59.97;101433.03;5010093;28;20034;-67
2021/04/16 01:43:40;;;;;;;2.50;1.63;;;;;;;3.65;59.58;101435.53;5009549;28;21575;-68
2021/04/16 01:46:10;;;;;;;3.25;2.03;;;;;;;3.70;59.52;101431.75;5008903;28;20113;-68
2021/04/16 01:48:41;;;;;;;3.30;1.70;;;;;;;3.74;59.26;101432.41;5006915;28;20069;-67
2021/04/16 01:51:12;;;;;;;3.47;1.98;;;;;;;3.78;59.55;101434.78;5009472;28;20038;-68
2021/04/16 01:53:38;;;;;;;3.03;1.70;;;;;;;3.81;59.42;101434.63;5009712;28;20557;-67
2021/04/16 01:56:04;;;;;;;3.38;1.88;;;;;;;3.82;60.33;101440.69;5008664;28;20042;-68
2021/04/16 01:58:29;;;;;;;4.68;2.45;;;;;;;3.77;60.23;101434.88;5009715;28;20034;-67
2021/04/16 02:00:55;;;;;;;2.97;1.90;;;;;;;3.79;60.05;101423.41;5009521;28;20410;-68
2021/04/16 02:03:21;;;;;;;4.57;2.40;;;;;;;3.79;59.75;101426.03;5009646;28;20037;-67
2021/04/16 02:05:46;;;;;;;3.35;2.20;;;;;;;3.82;59.56;101425.00;5008509;28;20192;-68
2021/04/16 02:08:12;;;;;;;3.85;2.30;;;;;;;3.77;59.98;101425.25;5009374;28;20072;-68
2021/04/16 02:10:37;;;;;;;3.83;2.42;;;;;;;3.80;60.39;101424.25;5012643;28;20041;-67
2021/04/16 02:13:05;;;;;;;4.13;2.53;;;;;;;3.78;60.58;101418.25;5013265;28;20061;-67
2021/04/16 02:15:31;;;;;;;3.92;2.28;;;;;;;3.78;61.19;101418.25;5012840;28;20402;-67
2021/04/16 02:17:56;;;;;;;3.40;2.10;;;;;;;3.80;60.70;101411.16;5013327;28;20121;-67
2021/04/16 02:20:24;;;;;;;3.25;2.00;;;;;;;3.76;61.75;101410.47;4994381;28;20034;-67
2021/04/16 02:22:50;;;;;;;6.15;2.30;;;;;;;3.81;60.58;101408.47;5012620;28;20212;-67
2021/04/16 02:25:15;;;;;;;3.83;2.00;;;;;;;3.79;61.05;101406.84;5012703;28;20360;-67
2021/04/16 02:27:41;;;;;;;5.18;2.63;;;;;;;3.81;60.86;101410.22;5012988;28;20134;-68
2021/04/16 02:30:14;;;;;;;4.18;2.45;;;;;;;3.70;62.58;101412.63;5011701;28;20130;-67
2021/04/16 02:32:39;;;;;;;3.65;2.67;;;;;;;3.77;61.98;101416.56;5012858;28;20057;-67
2021/04/16 02:35:06;;;;;;;4.32;2.80;;;;;;;3.68;62.89;101410.06;5012819;28;20058;-67
2021/04/16 02:37:32;;;;;;;3.60;2.45;;;;;;;3.68;62.25;101410.06;5012678;28;20037;-67
2021/04/16 02:39:57;;;;;;;4.00;2.70;;;;;;;3.74;61.98;101409.75;4995168;28;20419;-67
2021/04/16 02:42:23;;;;;;;4.38;2.30;;;;;;;3.67;63.29;101415.38;5011684;28;20034;-68
2021/04/16 02:44:48;;;;;;;3.03;2.00;;;;;;;3.66;62.88;101409.31;5012744;28;20038;-67
2021/04/16 02:47:14;;;;;;;4.07;2.75;;;;;;;3.50;64.88;101409.31;5012598;28;20061;-68
2021/04/16 02:49:39;;;;;;;3.70;2.50;;;;;;;3.49;64.79;101407.63;5011521;28;20117;-67
2021/04/16 02:52:05;;;;;;;5.03;2.40;;;;;;;3.48;63.99;101411.19;5012291;28;20044;-67
2021/04/16 02:54:31;;;;;;;3.45;2.45;;;;;;;3.57;62.92;101401.97;5012287;28;20034;-67
2021/04/16 02:56:56;;;;;;;3.05;2.40;;;;;;;3.40;64.52;101402.91;5012581;28;20084;-68
2021/04/16 02:59:22;;;;;;;5.00;2.83;;;;;;;3.40;64.28;101401.13;5012128;28;20565;-68
2021/04/16 03:01:48;;;;;;;6.03;2.90;;;;;;;3.39;64.79;101406.47;5012069;28;20483;-68
2021/04/16 03:04:14;;;;;;;3.30;2.60;;;;;;;3.34;64.53;101400.63;5011800;28;20073;-67
2021/04/16 03:06:39;;;;;;;5.68;3.80;;;;;;;3.43;64.29;101397.50;5012160;28;20037;-67
2021/04/16 03:09:05;;;;;;;5.03;3.58;;;;;;;3.38;64.59;101399.53;5012392;28;20041;-67
2021/04/16 03:11:31;;;;;;;4.95;3.72;;;;;;;3.36;64.54;101396.16;5012534;28;20034;-67
2021/04/16 03:13:56;;;;;;;3.67;3.20;;;;;;;3.30;64.88;101397.34;5012161;28;20034;-68
2021/04/16 03:16:25;;;;;;;5.05;2.80;;;;;;;3.16;66.97;101394.63;5011084;28;20042;-68
2021/04/16 03:18:51;;;;;;;6.07;3.53;;;;;;;3.19;66.10;101392.72;4994504;28;20533;-67
2021/04/16 03:21:17;;;;;;;6.63;4.30;;;;;;;3.19;66.58;101391.84;5011601;28;20030;-67
2021/04/16 03:23:42;;;;;;;5.18;3.85;;;;;;;3.07;68.10;101388.13;4994422;28;20418;-67
2021/04/16 03:26:07;;;;;;;4.82;3.40;;;;;;;3.07;68.68;101390.72;5011569;28;20124;-68
2021/04/16 03:28:33;;;;;;;7.85;3.72;;;;;;;3.06;68.54;101389.06;5012343;28;20038;-67
2021/04/16 03:30:58;;;;;;;6.57;4.80;;;;;;;3.08;67.46;101379.38;5011876;28;20525;-67
2021/04/16 03:33:24;;;;;;;7.18;5.15;;;;;;;3.07;68.32;101384.66;5011328;28;20069;-67
2021/04/16 03:35:49;;;;;;;5.68;3.90;;;;;;;3.04;69.35;101388.28;5011231;28;20789;-67
2021/04/16 03:38:15;;;;;;;5.28;4.10;;;;;;;3.05;68.48;101386.50;5011550;28;20406;-67
2021/04/16 03:40:40;;;;;;;6.90;4.65;;;;;;;3.04;69.29;101387.44;5011640;28;20097;-67
2021/04/16 03:43:06;;;;;;;6.13;4.55;;;;;;;3.04;68.98;101390.91;5011641;28;20038;-67
2021/04/16 03:45:31;;;;;;;8.10;6.03;;;;;;;3.09;68.18;101382.81;5010943;28;20038;-67
2021/04/16 03:47:57;;;;;;;6.80;5.15;;;;;;;3.09;68.46;101395.88;5011464;28;20030;-67
2021/04/16 03:50:34;;;;;;;6.88;5.53;;;;;;;3.10;68.30;101385.34;5010521;28;20099;-69
2021/04/16 03:53:00;;;;;;;6.07;4.63;;;;;;;3.00;68.43;101389.38;5011396;28;20439;-67
2021/04/16 03:55:29;;;;;;;5.47;4.90;;;;;;;2.98;68.29;101386.84;5010903;28;20498;-67
2021/04/16 03:57:55;;;;;;;6.00;4.03;;;;;;;2.97;68.19;101390.38;5011562;28;20422;-67
2021/04/16 04:00:29;;;;;;;4.78;3.53;;;;;;;2.92;69.94;101386.34;5010097;28;20278;-67
2021/04/16 04:02:55;;;;;;;5.60;4.30;;;;;;;2.93;69.61;101385.41;5011403;28;20049;-69
2021/04/16 04:05:20;;;;;;;5.93;4.32;;;;;;;2.94;68.44;101387.94;5011070;28;20117;-68
2021/04/16 04:07:45;;;;;;;5.13;4.43;;;;;;;2.84;69.97;101393.75;5010893;28;20042;-67
2021/04/16 04:10:12;;;;;;;6.53;4.95;;;;;;;2.84;69.71;101397.19;5010488;28;20068;-67
2021/04/16 04:12:37;;;;;;;6.10;4.65;;;;;;;2.82;71.09;101395.59;5010251;28;20128;-66
2021/04/16 04:15:04;;;;;;;7.10;5.20;;;;;;;2.72;70.70;101390.00;5010111;28;20591;-68
2021/04/16 04:17:34;;;;;;;9.25;4.90;;;;;;;2.75;69.42;101390.66;5011138;28;20049;-67
2021/04/16 04:20:01;;;;;;;6.25;4.78;;;;;;;2.73;68.63;101395.13;5011178;28;20065;-68
2021/04/16 04:22:26;;;;;;;5.55;4.50;;;;;;;2.59;72.14;101395.00;5010523;28;20069;-67
2021/04/16 04:24:52;;;;;;;5.75;4.25;;;;;;;2.63;69.13;101391.31;5010844;28;20040;-68
2021/04/16 04:27:18;;;;;;;5.05;3.25;;;;;;;2.57;72.52;101393.38;5010804;28;20245;-67
2021/04/16 04:29:44;;;;;;;5.35;4.32;;;;;;;2.49;72.68;101399.84;5010788;28;20160;-68
2021/04/16 04:32:10;;;;;;;6.72;4.43;;;;;;;2.46;72.76;101393.97;5009255;28;20128;-68
2021/04/16 04:34:36;;;;;;;7.03;5.00;;;;;;;2.37;72.15;101402.25;5010858;28;20025;-68
2021/04/16 04:37:03;;;;;;;7.70;4.10;;;;;;;2.34;71.36;101400.63;5010793;28;20044;-68
2021/04/16 04:39:36;;;;;;;5.75;3.92;;;;;;;2.24;74.01;101400.25;5010999;28;20129;-68
2021/04/16 04:42:03;;;;;;;5.50;4.10;;;;;;;2.18;73.59;101400.56;5010805;28;20503;-68
2021/04/16 04:44:28;;;;;;;5.82;4.65;;;;;;;2.11;72.96;101399.16;5011007;28;20038;-68
2021/04/16 04:46:54;;;;;;;6.88;4.40;;;;;;;2.05;75.50;101402.06;5010567;28;20080;-68
2021/04/16 04:49:20;;;;;;;6.55;4.63;;;;;;;1.95;73.50;101404.28;5010529;28;20598;-68
2021/04/16 04:51:46;;;;;;;7.93;5.15;;;;;;;1.80;73.42;101399.81;4992568;28;20038;-68
2021/04/16 04:54:12;;;;;;;6.53;4.20;;;;;;;1.72;73.31;101400.19;5010302;28;20058;-68
2021/04/16 04:56:38;;;;;;;5.95;4.13;;;;;;;1.68;72.53;101399.47;5010330;28;20507;-68
2021/04/16 04:59:04;;;;;;;5.75;4.60;;;;;;;1.61;73.52;101398.09;5010312;28;20120;-69
2021/04/16 05:01:30;;;;;;;7.68;5.00;;;;;;;1.57;74.41;101400.91;5010569;28;20557;-68
2021/04/16 05:03:56;;;;;;;8.35;5.30;;;;;;;1.55;74.77;101405.34;5009806;28;20042;-68
2021/04/16 05:06:21;;;;;;;7.18;4.88;;;;;;;1.52;74.15;101401.13;4992157;28;20562;-68
2021/04/16 05:08:46;;;;;;;6.70;4.80;;;;;;;1.48;74.66;101400.44;4992024;28;20084;-68
2021/04/16 05:11:11;;;;;;;5.40;4.05;;;;;;;1.47;73.78;101403.09;5010319;28;20080;-68
2021/04/16 05:13:37;;;;;;;6.03;4.13;;;;;;;1.48;76.40;101407.41;4975922;28;20060;-67
2021/04/16 05:16:03;;;;;;;6.82;4.80;;;;;;;1.54;74.51;101408.88;5009449;28;20038;-68
2021/04/16 05:18:29;;;;;;;7.05;4.75;;;;;;;1.63;74.01;101406.69;5009826;28;20030;-68
2021/04/16 05:20:54;;;;;;;8.30;6.30;;;;;;;1.74;74.49;101400.97;5009909;28;20041;-67
2021/04/16 05:23:20;;;;;;;6.88;5.40;;;;;;;1.86;74.34;101397.78;5010148;28;20042;-68
2021/04/16 05:25:45;;;;;;;7.13;4.70;;;;;;;2.09;72.71;101398.41;5009050;28;20064;-68
2021/04/16 05:28:10;;;;;;;7.57;5.55;;;;;;;2.39;71.93;101398.63;5009519;28;20503;-68
2021/04/16 05:30:36;;;;;;;7.22;5.43;;;;;;;2.61;71.59;101395.78;5009171;28;20034;-68
2021/04/16 05:33:01;;;;;;;9.13;6.30;;;;;;;2.89;70.97;101408.25;5009227;28;20034;-67
2021/04/16 05:35:27;;;;;;;6.80;5.03;;;;;;;3.01;71.12;101396.28;5009493;28;20084;-68
2021/04/16 05:37:56;;;;;;;8.93;6.43;;;;;;;3.39;69.86;101396.84;5010049;28;20596;-68
2021/04/16 05:40:22;;;;;;;9.70;6.80;;;;;;;3.69;69.40;101398.66;5008742;28;20706;-68
2021/04/16 05:42:48;;;;;;;9.55;5.90;;;;;;;3.96;69.07;101398.91;5009675;28;20046;-68
2021/04/16 05:45:14;;;;;;;8.50;6.60;;;;;;;4.26;67.89;101403.28;5009082;28;20041;-68
2021/04/16 05:47:40;;;;;;;7.03;5.43;;;;;;;4.40;66.83;101394.63;5009873;28;20534;-68
2021/04/16 05:50:05;;;;;;;8.45;6.47;;;;;;;4.82;66.35;101400.84;5008585;28;20048;-68
2021/04/16 05:52:31;;;;;;;6.72;4.85;;;;;;;4.90;65.33;101406.47;5009098;28;20037;-68
2021/04/16 05:54:56;;;;;;;6.40;4.25;;;;;;;5.03;64.77;101410.03;5009069;28;20053;-69
2021/04/16 05:57:22;;;;;;;7.95;5.88;;;;;;;5.20;65.26;101401.13;5009516;28;20038;-68
2021/04/16 05:59:47;;;;;;;9.48;6.30;;;;;;;5.64;62.58;101413.19;5009552;28;20432;-68
2021/04/16 06:02:24;;;;;;;7.82;5.50;;;;;;;5.82;62.85;101413.81;5008673;28;20413;-68
2021/04/16 06:04:51;;;;;;;7.15;4.50;;;;;;;5.93;62.71;101405.22;5009564;28;20046;-68
2021/04/16 06:07:16;;;;;;;5.05;3.30;;;;;;;6.58;60.86;101414.97;5009081;28;20483;-69
2021/04/16 06:09:42;;;;;;;9.85;5.55;;;;;;;6.79;59.89;101410.88;5009502;28;20049;-68
2021/04/16 06:12:08;;;;;;;7.13;5.13;;;;;;;7.04;57.57;101409.16;5008835;28;20131;-68
2021/04/16 06:14:33;;;;;;;6.13;4.68;;;;;;;7.20;57.75;101407.13;5009190;28;20117;-68
2021/04/16 06:16:59;;;;;;;6.63;4.47;;;;;;;6.99;57.43;101412.13;5008802;28;20168;-68
2021/04/16 06:19:24;;;;;;;7.60;5.55;;;;;;;7.48;56.98;101407.78;5008882;28;20388;-67
2021/04/16 06:21:50;;;;;;;6.68;4.40;;;;;;;7.25;57.01;101412.06;4990832;28;20042;-68
2021/04/16 06:24:15;;;;;;;6.85;4.63;;;;;;;7.35;56.52;101417.53;5008646;28;20508;-68
2021/04/16 06:26:40;;;;;;;5.72;3.95;;;;;;;7.84;56.22;101413.97;5008241;28;20044;-68
2021/04/16 06:29:06;;;;;;;6.18;4.65;;;;;;;7.91;54.88;101407.31;4991293;28;20497;-69
2021/04/16 06:35:14;;;;;;;5.55;4.40;;;;;;;8.48;52.36;101400.47;4964267;28;20470;-68
2021/04/16 06:37:40;;;;;;;6.00;4.30;;;;;;;8.32;53.09;101411.31;5002567;28;20105;-69
2021/04/16 06:40:06;;;;;;;6.13;4.30;;;;;;;8.62;53.08;101408.16;4996666;28;20053;-68
2021/04/16 06:42:33;;;;;;;6.05;4.80;;;;;;;8.87;51.77;101403.66;5000203;28;20039;-67
2021/04/16 06:45:05;;;;;;;5.32;4.18;;;;;;;9.02;51.65;101402.44;4996323;28;20257;-68
2021/04/16 06:47:38;;;;;;;5.07;3.50;;;;;;;9.01;50.98;101398.13;5003598;28;20057;-68
2021/04/16 06:50:05;;;;;;;5.38;4.10;;;;;;;9.10;50.72;101405.31;4991003;28;20443;-68
2021/04/16 06:52:44;;;;;;;4.78;3.63;;;;;;;8.80;51.48;101398.00;4986846;28;20460;-68
2021/04/16 06:55:18;;;;;;;6.10;4.22;;;;;;;9.16;50.70;101400.53;5009116;28;20117;-68
2021/04/16 06:57:48;;;;;;;5.43;3.78;;;;;;;9.32;49.10;101396.56;5006533;28;20042;-68
2021/04/16 07:00:30;;;;;;;5.43;4.03;;;;;;;8.94;49.98;101396.94;5008666;28;20038;-68
2021/04/16 07:03:23;;;;;;;6.07;3.92;;;;;;;8.98;51.32;101400.16;5008386;28;20500;-68
2021/04/16 07:05:55;;;;;;;5.07;3.75;;;;;;;9.52;50.05;101402.88;5000510;28;20438;-68
2021/04/16 07:08:51;;;;;;;6.70;3.70;;;;;;;9.79;48.16;101402.41;5004011;28;20061;-68
2021/04/16 07:11:30;;;;;;;5.93;3.85;;;;;;;9.81;47.41;101404.13;5000291;28;20026;-68
2021/04/16 07:13:58;;;;;;;5.07;3.40;;;;;;;9.96;46.74;101393.13;5004090;28;20030;-67
2021/04/16 07:16:24;;;;;;;5.70;3.45;;;;;;;9.93;46.56;101388.09;5011835;28;20029;-68
2021/04/16 07:18:53;;;;;;;7.35;3.50;;;;;;;10.05;46.76;101396.81;5012065;28;20025;-68
2021/04/16 07:21:20;;;;;;;5.35;3.22;;;;;;;10.76;45.25;101391.72;5011978;28;20480;-68
2021/04/16 07:23:50;;;;;;;4.15;3.25;;;;;;;10.94;44.29;101391.97;5006667;28;20030;-68
2021/04/16 07:26:33;;;;;;;4.70;2.70;;;;;;;10.91;43.62;101388.75;5003163;28;20546;-68
2021/04/16 07:28:59;;;;;;;4.13;2.80;;;;;;;10.99;44.47;101388.94;5009177;28;20035;-68
2021/04/16 07:31:31;;;;;;;3.90;2.80;;;;;;;11.36;43.31;101390.97;5009969;28;20149;-68
2021/04/16 07:33:57;;;;;;;5.25;3.03;;;;;;;11.25;42.51;101398.06;5008160;28;20038;-66
2021/04/16 07:36:36;;;;;;;3.53;2.65;;;;;;;11.17;43.04;101391.75;4990019;28;20034;-67
2021/04/16 07:39:13;;;;;;;6.22;3.40;;;;;;;10.89;42.14;101398.59;5006047;28;20041;-68
2021/04/16 07:42:12;;;;;;;3.90;2.80;;;;;;;11.16;42.76;101390.94;5011316;28;20041;-68
2021/04/16 07:45:07;;;;;;;4.70;2.85;;;;;;;11.72;41.76;101399.28;4995701;28;20038;-68
2021/04/16 07:47:34;;;;;;;5.28;2.60;;;;;;;11.83;40.40;101393.84;4971720;28;20038;-68
2021/04/16 07:50:14;;;;;;;3.22;2.53;;;;;;;12.14;40.65;101399.06;4995392;28;20031;-68
2021/04/16 07:52:45;;;;;;;4.88;2.53;;;;;;;12.11;41.50;101394.88;4996543;28;20022;-69
2021/04/16 07:55:28;;;;;;;;;;;;;;;12.87;40.38;101399.28;5002618;28;20038;-68
2021/04/16 07:58:05;;;;;;;3.42;2.58;;;;;;;12.96;38.77;101395.78;5006581;28;20494;-68
2021/04/16 08:00:36;;;;;;;4.22;2.40;;;;;;;13.01;38.68;101401.47;4994899;28;20498;-68
2021/04/16 08:03:21;;;;;;;4.40;2.90;;;;;;;12.38;39.25;101402.09;5009560;28;20491;-68
2021/04/16 08:05:48;;;;;;;4.57;2.40;;;;;;;12.75;38.17;101398.63;4996731;28;20041;-68
2021/04/16 08:08:16;;;;;;;2.78;2.28;;;;;;;13.24;36.64;101401.94;4998918;28;20042;-68
2021/04/16 08:10:43;;;;;;;2.92;2.25;;;;;;;13.18;37.31;101399.88;4992273;28;20031;-68
2021/04/16 08:13:10;;;;;;;4.25;2.85;;;;;;;12.97;37.98;101402.78;5001377;28;20034;-68
2021/04/16 08:15:37;;;;;;;5.55;2.40;;;;;;;12.68;37.08;101400.19;5010921;28;20049;-68
2021/04/16 08:18:31;;;;;;;3.92;2.38;;;;;;;11.47;39.45;101406.78;5011068;28;20476;-69
2021/04/16 08:21:07;;;;;;;3.50;2.58;;;;;;;11.07;39.76;101402.31;4992988;28;20033;-68
2021/04/16 08:23:54;;;;;;;7.00;2.70;;;;;;;10.31;42.42;101412.34;5010200;28;20040;-68
2021/04/16 08:26:24;;;;;;;5.60;3.00;;;;;;;10.02;42.78;101410.28;5003965;28;20105;-68
2021/04/16 08:28:54;;;;;;;4.53;2.30;;;;;;;9.75;43.15;101405.47;5010432;28;20428;-68
2021/04/16 08:31:32;;;;;;;4.90;2.80;;;;;;;9.47;44.03;101409.50;5000334;28;20034;-68
2021/04/16 08:34:15;;;;;;;5.18;2.72;;;;;;;9.81;43.46;101407.59;5006403;28;20038;-69
2021/04/16 08:36:43;;;;;;;3.83;2.30;;;;;;;9.67;43.91;101407.88;5004042;28;20030;-69
2021/04/16 08:39:17;;;;;;;3.60;2.75;;;;;;;9.89;44.05;101405.19;4998751;28;20053;-69
2021/04/16 08:41:53;;;;;;;3.80;2.40;;;;;;;9.84;42.95;101401.22;4995818;28;20044;-69
2021/04/16 08:44:20;;;;;;;6.22;3.08;;;;;;;9.52;43.67;101400.22;5009109;28;20026;-69
2021/04/16 08:46:48;;;;;;;4.53;3.20;;;;;;;9.24;45.10;101398.13;5009593;28;20041;-68
2021/04/16 08:49:29;;;;;;;3.42;2.70;;;;;;;9.04;46.36;101402.34;4994080;28;20040;-69
2021/04/16 08:52:25;;;;;;;3.28;2.13;;;;;;;8.92;46.82;101396.22;5007309;28;20037;-68
2021/04/16 08:54:52;;;;;;;5.28;2.45;;;;;;;8.72;46.74;101403.00;4984362;28;20049;-68
2021/04/16 08:57:24;;;;;;;4.00;2.60;;;;;;;8.25;47.57;101403.03;5001858;28;20119;-68
2021/04/16 09:00:12;;;;;;;4.80;3.10;;;;;;;8.43;47.44;101389.44;5003900;28;20454;-68
2021/04/16 09:02:44;;;;;;;5.72;3.22;;;;;;;9.90;45.86;101412.13;5008460;28;20105;-69
2021/04/16 09:05:12;;;;;;;3.53;2.47;;;;;;;10.97;43.65;101398.81;5001355;28;20057;-68
2021/04/16 09:07:47;;;;;;;3.20;2.05;;;;;;;11.45;42.10;101403.41;5004627;28;20194;-68
2021/04/16 09:10:16;;;;;;;3.95;2.30;;;;;;;11.23;41.51;101397.38;4987535;28;20125;-68
2021/04/16 09:12:41;;;;;;;4.00;2.50;;;;;;;11.56;40.15;101403.31;5006506;28;20030;-68
2021/04/16 09:15:18;;;;;;;4.15;2.78;;;;;;;11.42;41.27;101399.22;5006329;28;20033;-67
2021/04/16 09:17:52;;;;;;;4.97;3.08;;;;;;;10.98;41.42;101405.75;5006370;28;20057;-68
2021/04/16 09:20:35;;;;;;;3.13;2.42;;;;;;;10.94;41.92;101404.34;5005885;28;20049;-68
2021/04/16 09:23:03;;;;;;;3.78;2.90;;;;;;;11.08;41.81;101403.97;4997780;28;20034;-68
2021/04/16 09:25:41;;;;;;;3.22;2.35;;;;;;;10.87;41.96;101405.84;5006911;28;20037;-68
2021/04/16 09:28:21;;;;;;;4.07;2.72;;;;;;;10.87;42.24;101409.34;5007035;28;20085;-68
2021/04/16 09:30:48;;;;;;;2.83;2.22;;;;;;;10.66;41.98;101405.91;5007098;28;20423;-68
2021/04/16 09:33:24;;;;;;;3.15;2.35;;;;;;;10.33;42.54;101405.97;5004785;28;20030;-67
2021/04/16 09:36:31;;;;;;;3.45;2.20;;;;;;;9.71;44.88;101409.31;5001042;28;20404;-68
2021/04/16 09:39:12;;;;;;;2.42;1.83;;;;;;;9.67;43.32;101407.88;4997359;28;20049;-68
2021/04/16 09:41:39;;;;;;;3.35;2.50;;;;;;;9.76;42.75;101404.50;5003869;28;20353;-69
2021/04/16 09:44:26;;;;;;;3.13;2.10;;;;;;;9.15;44.29;101397.03;5003411;28;20087;-69
2021/04/16 09:46:51;;;;;;;4.60;2.28;;;;;;;9.26;45.20;101399.66;5009091;28;20042;-68
2021/04/16 09:49:23;;;;;;;2.58;1.95;;;;;;;9.43;43.51;101403.59;5008553;28;20091;-69
2021/04/16 09:51:49;;;;;;;3.17;2.00;;;;;;;9.55;42.95;101405.25;5007258;28;20065;-68
2021/04/16 09:54:20;;;;;;;3.53;2.13;;;;;;;9.51;43.05;101395.91;5003437;28;20484;-68
2021/04/16 09:57:04;;;;;;;2.75;1.90;;;;;;;9.71;42.82;101407.50;5005900;28;20029;-68
2021/04/16 09:59:33;;;;;;;2.55;1.70;;;;;;;9.52;44.10;101405.50;5007517;28;20034;-68
2021/04/16 10:02:14;;;;;;;2.65;1.55;;;;;;;9.71;43.49;101409.31;4978961;28;20026;-68
2021/04/16 10:04:50;;;;;;;2.63;1.60;;;;;;;9.21;43.06;101403.63;5008700;28;20041;-68
2021/04/16 10:07:19;;;;;;;2.65;2.00;;;;;;;9.11;43.37;101404.38;5008292;28;20834;-69
2021/04/16 10:09:44;;;;;;;3.22;1.90;;;;;;;8.63;45.98;101404.59;5008856;28;20037;-69
2021/04/16 10:12:13;;;;;;;2.55;1.63;;;;;;;8.58;44.58;101405.88;5008237;28;20038;-68
2021/04/16 10:14:39;;;;;;;2.85;1.40;;;;;;;8.45;44.90;101396.28;5007895;28;20041;-69
2021/04/16 10:17:10;;;;;;;3.63;2.20;;;;;;;8.76;44.29;101403.63;5008770;28;20052;-69
2021/04/16 10:19:38;;;;;;;;;;;;;;;8.69;47.83;101403.25;5009193;28;20026;-69
2021/04/16 10:22:10;;;;;;;2.40;1.55;;;;;;;8.81;44.60;101401.47;4999767;28;19918;-69
2021/04/16 10:34:21;;;;;;;2.55;1.33;;;;;;;8.44;44.36;101388.50;5011482;28;20030;-69
2021/04/16 10:46:57;;;;;;;3.33;1.75;;;;;;;8.16;45.49;101401.06;5011097;28;20104;-68
2021/04/16 10:58:23;;;;;;;2.20;1.52;;;;;;;8.87;45.83;101386.03;4930673;29;20040;-68
2021/04/16 14:18:03;;;;;;;2.95;1.60;;;;;;;8.11;49.27;101318.91;5047586;28;20411;-67
2021/04/16 14:20:40;;;;;;;3.58;1.48;;;;;;;8.12;49.35;101327.66;5039568;28;20044;-66
2021/04/16 14:23:09;;;;;;;2.05;1.40;;;;;;;8.12;48.64;101322.38;5059684;28;20571;-67
2021/04/16 14:25:37;;;;;;;2.92;1.35;;;;;;;8.18;49.17;101312.22;5057717;28;20418;-68
2021/04/16 14:28:05;;;;;;;4.50;1.70;;;;;;;8.47;48.20;101317.09;5059762;28;20033;-65
2021/04/16 14:30:34;;;;;;;2.50;1.40;;;;;;;8.55;47.62;101317.31;5058896;28;20037;-67
2021/04/16 14:33:02;;;;;;;2.97;1.60;;;;;;;8.64;47.54;101302.59;5057672;28;20454;-68
2021/04/16 14:35:30;;;;;;;2.67;1.40;;;;;;;8.61;47.07;101316.84;5053549;28;20068;-70
2021/04/16 14:37:57;;;;;;;2.58;1.40;;;;;;;8.64;47.58;101313.13;5060532;28;20029;-66
2021/04/16 14:40:23;;;;;;;2.22;1.50;;;;;;;8.58;48.51;101319.75;5054424;28;20036;-66
2021/04/16 14:42:49;;;;;;;3.30;1.50;;;;;;;8.32;51.45;101312.94;5059969;28;20043;-67
2021/04/16 14:45:17;;;;;;;2.10;1.40;;;;;;;8.30;49.87;101316.56;5062220;28;20028;-66
2021/04/16 14:47:42;;;;;;;2.70;1.40;;;;;;;8.24;50.17;101317.00;5054597;28;20517;-65
2021/04/16 14:50:11;;;;;;;2.47;1.48;;;;;;;8.30;49.40;101313.91;5058863;28;20045;-67
2021/04/16 14:52:37;;;;;;;3.00;1.50;;;;;;;8.38;49.35;101310.69;5055328;28;20026;-67
2021/04/16 14:55:15;;;;;;;2.72;1.58;;;;;;;8.47;48.29;101309.19;5060923;28;20040;-68
2021/04/16 14:57:41;;;;;;;2.67;1.45;;;;;;;8.33;48.39;101314.66;5062359;28;20036;-66
2021/04/16 15:00:12;;;;;;;3.85;1.67;;;;;;;8.27;48.96;101319.44;5064936;28;20047;-68
2021/04/16 15:02:38;;;;;;;2.83;1.70;;;;;;;8.25;49.15;101320.50;5048419;28;20033;-67
2021/04/16 15:05:05;;;;;;;3.22;1.70;;;;;;;8.21;49.55;101316.41;5060495;28;20057;-67
2021/04/16 15:07:38;;;;;;;2.83;1.60;;;;;;;8.23;49.59;101312.72;5056323;28;20060;-67
2021/04/16 15:10:06;;;;;;;2.38;1.50;;;;;;;8.14;50.80;101309.94;5050859;28;20064;-67
2021/04/16 15:12:35;;;;;;;2.40;1.52;;;;;;;8.26;49.87;101307.19;5055907;28;20067;-68
2021/04/16 15:15:00;;;;;;;2.60;1.50;;;;;;;8.40;49.28;101315.88;5056618;28;20052;-68
2021/04/16 15:17:26;;;;;;;3.35;1.90;;;;;;;8.43;49.32;101308.56;5054850;28;20426;-67
2021/04/16 15:19:54;;;;;;;2.95;1.90;;;;;;;8.48;49.30;101316.13;5075244;22;20528;-70
2021/04/16 15:22:26;;;;;;;3.22;1.80;;;;;;;8.53;48.46;101308.69;5063159;28;20033;-70
2021/04/16 15:24:53;;;;;;;2.92;1.90;;;;;;;8.49;48.42;101316.00;5065523;28;20123;-70
2021/04/16 15:27:22;;;;;;;7.05;2.08;;;;;;;8.42;48.99;101311.34;5066125;28;20044;-70
2021/04/16 15:29:52;;;;;;;4.38;1.70;;;;;;;8.22;50.22;101311.06;5052757;28;20092;-70
2021/04/16 15:32:20;;;;;;;3.92;2.00;;;;;;;8.12;50.45;101319.75;5034281;28;20568;-70